createdAt,value
2023-04-01T00:01:10.220Z,13.48
2023-04-01T00:03:38.868Z,13.41
2023-04-01T00:06:07.432Z,13.44
2023-04-01T00:08:35.650Z,13.50
2023-04-01T00:11:04.247Z,13.50
2023-04-01T00:13:34.301Z,13.32
2023-04-01T00:16:06.614Z,13.36
2023-04-01T00:18:38.515Z,13.38
2023-04-01T00:21:06.518Z,13.41
2023-04-01T00:23:35.176Z,13.40
2023-04-01T00:26:05.320Z,13.42
2023-04-01T00:28:37.580Z,13.41
2023-04-01T00:31:08.319Z,13.34
2023-04-01T00:33:36.678Z,13.34
2023-04-01T00:36:10.337Z,13.40
2023-04-01T00:38:38.950Z,13.41
2023-04-01T00:41:07.981Z,13.42
2023-04-01T00:43:38.298Z,13.35
2023-04-01T00:46:06.765Z,13.28
2023-04-01T00:48:38.582Z,13.30
2023-04-01T00:51:09.824Z,13.35
2023-04-01T00:53:42.637Z,13.36
2023-04-01T00:56:17.910Z,13.36
2023-04-01T00:58:53.308Z,13.36
2023-04-01T01:01:23.876Z,13.38
2023-04-01T01:03:52.262Z,13.43
2023-04-01T01:06:33.883Z,13.45
2023-04-01T01:09:16.393Z,13.37
2023-04-01T01:11:49.416Z,13.45
2023-04-01T01:14:32.069Z,13.46
2023-04-01T01:17:09.132Z,13.50
2023-04-01T01:19:54.860Z,13.51
2023-04-01T01:22:38.903Z,13.54
2023-04-01T01:25:21.475Z,13.57
2023-04-01T01:27:57.551Z,13.55
2023-04-01T01:30:40.955Z,13.58
2023-04-01T01:33:43.362Z,13.54
2023-04-01T01:36:16.000Z,13.55
2023-04-01T01:38:44.392Z,13.54
2023-04-01T01:41:15.924Z,13.54
2023-04-01T01:43:46.988Z,13.58
2023-04-01T01:46:18.979Z,13.55
2023-04-01T01:48:48.439Z,13.54
2023-04-01T01:51:18.427Z,13.51
2023-04-01T01:53:46.125Z,13.53
2023-04-01T01:56:15.484Z,13.50
2023-04-01T01:58:47.104Z,13.50
2023-04-01T02:01:20.090Z,13.48
2023-04-01T02:03:48.622Z,13.49
2023-04-01T02:06:21.401Z,13.53
2023-04-01T02:08:52.904Z,13.53
2023-04-01T02:11:25.528Z,13.54
2023-04-01T02:13:58.051Z,13.59
2023-04-01T02:16:31.050Z,13.60
2023-04-01T02:19:00.533Z,13.58
2023-04-01T02:21:34.008Z,13.61
2023-04-01T02:24:04.916Z,13.65
2023-04-01T02:26:32.808Z,13.59
2023-04-01T02:29:03.414Z,13.55
2023-04-01T02:31:31.489Z,13.58
2023-04-01T02:33:59.752Z,13.58
2023-04-01T02:36:28.295Z,13.54
2023-04-01T02:39:03.113Z,13.51
2023-04-01T02:41:31.414Z,13.53
2023-04-01T02:44:00.287Z,13.50
2023-04-01T02:46:28.029Z,13.45
2023-04-01T02:48:56.279Z,13.45
2023-04-01T02:51:23.956Z,13.42
2023-04-01T02:53:51.630Z,13.45
2023-04-01T02:56:21.468Z,13.45
2023-04-01T02:58:49.128Z,13.46
2023-04-01T03:01:16.939Z,13.45
2023-04-01T03:03:45.065Z,13.49
2023-04-01T03:06:14.797Z,13.43
2023-04-01T03:08:42.590Z,13.44
2023-04-01T03:11:11.967Z,13.41
2023-04-01T03:13:41.131Z,13.47
2023-04-01T03:16:09.151Z,13.45
2023-04-01T03:18:37.446Z,13.46
2023-04-01T03:21:18.076Z,13.46
2023-04-01T03:23:46.375Z,13.44
2023-04-01T03:26:14.518Z,13.44
2023-04-01T03:28:43.627Z,13.42
2023-04-01T03:31:12.126Z,13.38
2023-04-01T03:33:40.019Z,13.43
2023-04-01T03:36:08.271Z,13.41
2023-04-01T03:38:36.927Z,13.37
2023-04-01T03:41:04.739Z,13.39
2023-04-01T03:43:32.414Z,13.40
2023-04-01T03:46:02.164Z,13.36
2023-04-01T03:48:29.867Z,13.39
2023-04-01T03:50:57.557Z,13.41
2023-04-01T03:53:26.040Z,13.37
2023-04-01T03:55:53.726Z,13.39
2023-04-01T03:58:21.720Z,13.38
2023-04-01T04:00:50.134Z,13.38
2023-04-01T04:03:19.389Z,13.38
2023-04-01T04:05:51.772Z,13.38
2023-04-01T04:08:19.670Z,13.34
2023-04-01T04:10:47.475Z,13.35
2023-04-01T04:13:15.784Z,13.34
2023-04-01T04:15:43.470Z,13.29
2023-04-01T04:18:11.136Z,13.32
2023-04-01T04:20:47.313Z,13.33
2023-04-01T04:23:14.998Z,13.31
2023-04-01T04:25:42.679Z,13.30
2023-04-01T04:28:11.007Z,13.32
2023-04-01T04:30:38.698Z,13.34
2023-04-01T04:33:06.414Z,13.36
2023-04-01T04:35:35.948Z,13.34
2023-04-01T04:38:04.908Z,13.38
2023-04-01T04:40:32.613Z,13.39
2023-04-01T04:43:00.310Z,13.40
2023-04-01T04:45:27.971Z,13.39
2023-04-01T04:47:55.685Z,13.36
2023-04-01T04:50:24.042Z,13.38
2023-04-01T04:52:52.838Z,13.38
2023-04-01T04:55:22.549Z,13.38
2023-04-01T04:57:50.586Z,13.38
2023-04-01T05:00:18.807Z,13.39
2023-04-01T05:02:46.603Z,13.36
2023-04-01T05:05:14.789Z,13.32
2023-04-01T05:07:42.497Z,13.30
2023-04-01T05:10:11.135Z,13.30
2023-04-01T05:12:40.881Z,13.31
2023-04-01T05:15:10.279Z,13.28
2023-04-01T05:17:38.006Z,13.28
2023-04-01T05:20:07.430Z,13.23
2023-04-01T05:22:35.409Z,13.24
2023-04-01T05:25:03.076Z,13.26
2023-04-01T05:27:31.236Z,13.26
2023-04-01T05:30:00.440Z,13.28
2023-04-01T05:32:28.190Z,13.23
2023-04-01T05:34:56.205Z,13.23
2023-04-01T05:37:24.910Z,13.24
2023-04-01T05:39:52.581Z,13.22
2023-04-01T05:49:58.207Z,13.20
2023-04-01T05:52:25.895Z,13.25
2023-04-01T05:54:53.580Z,13.24
2023-04-01T05:57:22.381Z,13.23
2023-04-01T05:59:50.113Z,13.24
2023-04-01T06:02:19.501Z,13.18
2023-04-01T06:04:48.251Z,13.14
2023-04-01T06:07:19.444Z,13.16
2023-04-01T06:09:47.732Z,13.19
2023-04-01T06:12:41.186Z,13.19
2023-04-01T06:15:20.624Z,13.12
2023-04-01T06:18:07.250Z,13.16
2023-04-01T06:20:42.016Z,13.12
2023-04-01T06:23:35.515Z,13.17
2023-04-01T06:26:17.332Z,13.16
2023-04-01T06:29:08.617Z,13.14
2023-04-01T06:31:48.960Z,13.16
2023-04-01T06:34:38.369Z,13.13
2023-04-01T06:37:19.139Z,13.10
2023-04-01T06:40:20.120Z,13.15
2023-04-01T06:43:01.974Z,13.15
2023-04-01T06:45:37.510Z,13.14
2023-04-01T06:48:24.457Z,13.15
2023-04-01T06:51:03.651Z,13.18
2023-04-01T06:53:41.581Z,13.20
2023-04-01T06:56:12.420Z,13.19
2023-04-01T06:58:47.115Z,13.20
2023-04-01T07:01:20.611Z,13.16
2023-04-01T07:03:54.990Z,13.17
2023-04-01T07:06:31.127Z,13.18
2023-04-01T07:09:05.604Z,13.18
2023-04-01T07:11:38.192Z,13.10
2023-04-01T07:14:15.806Z,13.17
2023-04-01T07:16:49.667Z,13.19
2023-04-01T07:19:22.938Z,13.16
2023-04-01T07:21:55.403Z,13.09
2023-04-01T07:24:27.522Z,13.10
2023-04-01T07:26:59.572Z,13.13
2023-04-01T07:29:30.003Z,13.16
2023-04-01T07:32:23.742Z,13.16
2023-04-01T07:35:06.119Z,13.18
2023-04-01T07:37:41.680Z,13.17
2023-04-01T07:40:23.138Z,13.18
2023-04-01T07:43:08.159Z,13.15
2023-04-01T07:45:43.104Z,13.20
2023-04-01T07:48:23.459Z,13.16
2023-04-01T07:50:58.513Z,13.18
2023-04-01T07:53:37.604Z,13.23
2023-04-01T07:56:12.304Z,13.22
2023-04-01T07:58:53.256Z,13.25
2023-04-01T08:01:33.429Z,13.25
2023-04-01T08:04:23.838Z,13.19
2023-04-01T08:06:58.671Z,13.24
2023-04-01T08:09:36.281Z,13.27
2023-04-01T08:12:15.592Z,13.29
2023-04-01T08:14:55.098Z,13.28
2023-04-01T08:17:32.666Z,13.27
2023-04-01T08:20:14.742Z,13.25
2023-04-01T08:22:44.257Z,13.27
2023-04-01T08:25:19.019Z,13.26
2023-04-01T08:27:50.053Z,13.29
2023-04-01T08:30:21.545Z,13.34
2023-04-01T08:32:57.829Z,13.38
2023-04-01T08:35:33.296Z,13.35
2023-04-01T08:38:08.678Z,13.34
2023-04-01T08:40:58.046Z,13.32
2023-04-01T08:43:42.008Z,13.36
2023-04-01T08:46:23.716Z,13.36
2023-04-01T08:49:08.318Z,13.34
2023-04-01T08:52:07.687Z,13.38
2023-04-01T08:55:00.093Z,13.40
2023-04-01T08:57:40.257Z,13.40
2023-04-01T09:00:21.164Z,13.42
2023-04-01T09:03:17.811Z,13.44
2023-04-01T09:06:30.784Z,13.47
2023-04-01T09:09:23.866Z,13.52
2023-04-01T09:12:17.920Z,13.52
2023-04-01T09:15:06.339Z,13.51
2023-04-01T09:18:06.892Z,13.52
2023-04-01T09:21:02.070Z,13.52
2023-04-01T09:24:06.819Z,13.52
2023-04-01T09:26:53.268Z,13.53
2023-04-01T09:29:34.685Z,13.51
2023-04-01T09:32:38.529Z,13.48
2023-04-01T09:35:21.132Z,13.51
2023-04-01T09:37:56.183Z,13.51
2023-04-01T09:40:38.417Z,13.54
2023-04-01T09:43:25.217Z,13.58
2023-04-01T09:46:11.391Z,13.60
2023-04-01T09:49:08.090Z,13.63
2023-04-01T09:51:42.867Z,13.66
2023-04-01T09:54:24.261Z,13.69
2023-04-01T09:57:24.284Z,13.72
2023-04-01T10:00:20.336Z,13.76
2023-04-01T10:03:18.448Z,13.77
2023-04-01T10:06:28.276Z,13.81
2023-04-01T10:09:20.031Z,13.85
2023-04-01T10:12:21.647Z,13.82
2023-04-01T10:15:22.480Z,13.82
2023-04-01T10:18:14.761Z,13.81
2023-04-01T10:21:06.655Z,13.82
2023-04-01T10:23:56.796Z,13.81
2023-04-01T10:27:11.243Z,13.80
2023-04-01T10:30:04.782Z,13.86
2023-04-01T10:33:03.721Z,13.86
2023-04-01T10:36:12.977Z,13.90
2023-04-01T10:39:29.162Z,13.93
2023-04-01T10:42:26.892Z,13.98
2023-04-01T10:45:29.184Z,14.00
2023-04-01T10:48:17.492Z,14.03
2023-04-01T10:51:16.800Z,14.05
2023-04-01T10:53:51.892Z,14.07
2023-04-01T10:56:41.551Z,14.10
2023-04-01T10:59:18.307Z,14.14
2023-04-01T11:02:18.450Z,14.16
2023-04-01T11:05:27.845Z,14.11
2023-04-01T11:08:49.504Z,14.15
2023-04-01T11:12:01.313Z,14.18
2023-04-01T11:15:05.058Z,14.19
2023-04-01T11:18:16.229Z,14.24
2023-04-01T11:21:32.803Z,14.24
2023-04-01T11:24:34.354Z,14.27
2023-04-01T11:27:16.521Z,14.32
2023-04-01T11:30:18.545Z,14.34
2023-04-01T11:32:56.552Z,14.35
2023-04-01T11:35:42.628Z,14.29
2023-04-01T11:38:28.248Z,14.28
2023-04-01T11:41:04.359Z,14.28
2023-04-01T11:43:40.715Z,14.32
2023-04-01T11:46:13.354Z,14.35
2023-04-01T11:48:54.628Z,14.33
2023-04-01T11:51:42.223Z,14.37
2023-04-01T11:54:27.755Z,14.39
2023-04-01T11:57:10.224Z,14.37
2023-04-01T12:00:13.026Z,14.35
2023-04-01T12:02:54.261Z,14.40
2023-04-01T12:05:36.516Z,14.40
2023-04-01T12:08:18.673Z,14.41
2023-04-01T12:10:55.418Z,14.36
2023-04-01T12:13:38.356Z,14.34
2023-04-01T12:16:17.848Z,14.32
2023-04-01T12:18:54.782Z,14.31
2023-04-01T12:21:29.578Z,14.31
2023-04-01T12:24:17.218Z,14.27
2023-04-01T12:27:11.599Z,14.32
2023-04-01T12:30:21.190Z,14.29
2023-04-01T12:32:52.798Z,14.35
2023-04-01T12:35:26.192Z,14.33
2023-04-01T12:38:11.141Z,14.34
2023-04-01T12:40:49.924Z,14.31
2023-04-01T12:43:48.641Z,14.26
2023-04-01T12:46:22.425Z,14.23
2023-04-01T12:49:21.775Z,14.22
2023-04-01T12:52:04.801Z,14.13
2023-04-01T12:55:05.825Z,14.11
2023-04-01T12:58:09.690Z,14.13
2023-04-01T13:00:50.900Z,14.09
2023-04-01T13:03:46.581Z,14.09
2023-04-01T13:06:30.581Z,14.08
2023-04-01T13:09:08.594Z,14.07
2023-04-01T13:11:48.383Z,14.07
2023-04-01T13:14:34.054Z,14.04
2023-04-01T13:17:13.862Z,14.01
2023-04-01T13:20:01.895Z,14.02
2023-04-01T13:23:01.332Z,13.99
2023-04-01T13:25:39.001Z,14.00
2023-04-01T13:28:15.128Z,13.96
2023-04-01T13:30:50.712Z,13.97
2023-04-01T13:33:30.962Z,13.98
2023-04-01T13:36:10.463Z,13.94
2023-04-01T13:39:07.204Z,13.89
2023-04-01T13:41:53.628Z,13.91
2023-04-01T13:44:30.066Z,13.89
2023-04-01T13:47:11.634Z,13.91
2023-04-01T13:50:07.278Z,13.86
2023-04-01T13:52:59.645Z,13.87
2023-04-01T13:55:36.653Z,13.89
2023-04-01T13:58:30.488Z,13.91
2023-04-01T14:01:07.605Z,13.84
2023-04-01T14:03:52.484Z,13.89
2023-04-01T14:06:31.350Z,13.89
2023-04-01T14:09:27.749Z,13.89
2023-04-01T14:12:03.421Z,13.92
2023-04-01T14:14:46.135Z,13.95
2023-04-01T14:17:26.569Z,13.97
2023-04-01T14:20:16.717Z,13.86
2023-04-01T14:23:01.946Z,13.95
2023-04-01T14:26:06.462Z,14.00
2023-04-01T14:28:45.819Z,14.02
2023-04-01T14:31:34.515Z,13.97
2023-04-01T14:34:13.446Z,14.08
2023-04-01T14:36:51.529Z,14.09
2023-04-01T14:39:52.000Z,14.13
2023-04-01T14:42:47.556Z,14.15
2023-04-01T14:45:35.871Z,14.21
2023-04-01T14:48:17.777Z,14.25
2023-04-01T14:50:48.794Z,14.20
2023-04-01T14:53:29.424Z,14.24
2023-04-01T14:56:00.993Z,14.24
2023-04-01T14:58:45.811Z,14.22
2023-04-01T15:01:27.941Z,14.22
2023-04-01T15:04:06.829Z,14.21
2023-04-01T15:06:53.241Z,14.22
2023-04-01T15:09:31.575Z,14.19
2023-04-01T15:12:13.764Z,14.20
2023-04-01T15:15:12.564Z,14.19
2023-04-01T15:17:57.107Z,14.18
2023-04-01T15:20:50.751Z,14.18
2023-04-01T15:23:30.119Z,14.15
2023-04-01T15:26:34.633Z,14.12
2023-04-01T15:29:17.483Z,14.11
2023-04-01T15:31:54.125Z,14.10
2023-04-01T15:34:32.154Z,14.06
2023-04-01T15:37:07.486Z,14.06
2023-04-01T15:39:56.597Z,13.97
2023-04-01T15:42:37.180Z,14.00
2023-04-01T15:45:17.203Z,13.96
2023-04-01T15:47:55.304Z,13.99
2023-04-01T15:50:55.471Z,13.97
2023-04-01T15:53:53.875Z,13.98
2023-04-01T15:56:47.026Z,13.97
2023-04-01T15:59:31.417Z,13.97
2023-04-01T16:02:10.670Z,13.95
2023-04-01T16:04:59.495Z,13.91
2023-04-01T16:07:42.333Z,13.92
2023-04-01T16:10:24.079Z,13.86
2023-04-01T16:13:04.227Z,13.79
2023-04-01T16:15:41.898Z,13.79
2023-04-01T16:18:25.041Z,13.78
2023-04-01T16:20:58.512Z,13.73
2023-04-01T16:23:31.965Z,13.71
2023-04-01T16:26:07.911Z,13.69
2023-04-01T16:28:42.170Z,13.69
2023-04-01T16:31:16.403Z,13.69
2023-04-01T16:33:53.110Z,13.67
2023-04-01T16:36:30.712Z,13.67
2023-04-01T16:39:14.646Z,13.64
2023-04-01T16:41:50.752Z,13.64
2023-04-01T16:44:22.442Z,13.66
2023-04-01T16:46:54.566Z,13.63
2023-04-01T16:49:32.393Z,13.60
2023-04-01T16:52:15.999Z,13.60
2023-04-01T16:54:49.783Z,13.54
2023-04-01T16:57:25.535Z,13.57
2023-04-01T17:00:01.757Z,13.54
2023-04-01T17:02:33.936Z,13.47
2023-04-01T17:05:08.007Z,13.53
2023-04-01T17:07:49.147Z,13.52
2023-04-01T17:10:30.052Z,13.45
2023-04-01T17:13:21.474Z,13.47
2023-04-01T17:15:58.944Z,13.46
2023-04-01T17:18:39.692Z,13.46
2023-04-01T17:21:12.416Z,13.48
2023-04-01T17:23:46.256Z,13.49
2023-04-01T17:26:34.924Z,13.48
2023-04-01T17:29:14.427Z,13.50
2023-04-01T17:31:54.881Z,13.48
2023-04-01T17:34:42.120Z,13.47
2023-04-01T17:37:32.841Z,13.47
2023-04-01T17:40:18.951Z,13.51
2023-04-01T17:42:55.894Z,13.48
2023-04-01T17:45:26.488Z,13.45
2023-04-01T17:48:10.851Z,13.48
2023-04-01T17:50:52.219Z,13.48
2023-04-01T17:53:32.452Z,13.48
2023-04-01T17:56:17.144Z,13.45
2023-04-01T17:58:48.463Z,13.46
2023-04-01T18:01:37.359Z,13.47
2023-04-01T18:04:19.757Z,13.46
2023-04-01T18:07:07.118Z,13.46
2023-04-01T18:09:46.794Z,13.44
2023-04-01T18:12:19.708Z,13.43
2023-04-01T18:15:07.376Z,13.45
2023-04-01T18:17:48.441Z,13.42
2023-04-01T18:20:33.780Z,13.39
2023-04-01T18:23:07.492Z,13.39
2023-04-01T18:25:41.681Z,13.38
2023-04-01T18:28:23.670Z,13.37
2023-04-01T18:30:58.711Z,13.31
2023-04-01T18:33:34.198Z,13.30
2023-04-01T18:36:15.550Z,13.33
2023-04-01T18:38:51.331Z,13.32
2023-04-01T18:41:29.568Z,13.31
2023-04-01T18:44:09.204Z,13.31
2023-04-01T18:46:40.169Z,13.26
2023-04-01T18:49:15.957Z,13.31
2023-04-01T18:51:50.553Z,13.26
2023-04-01T18:54:27.378Z,13.30
2023-04-01T18:57:05.084Z,13.26
2023-04-01T18:59:40.880Z,13.27
2023-04-01T19:02:21.908Z,13.25
2023-04-01T19:04:59.089Z,13.25
2023-04-01T19:07:48.816Z,13.24
2023-04-01T19:10:28.548Z,13.24
2023-04-01T19:13:12.114Z,13.23
2023-04-01T19:15:46.677Z,13.19
2023-04-01T19:18:42.947Z,13.22
2023-04-01T19:21:18.654Z,13.21
2023-04-01T19:24:09.263Z,13.17
2023-04-01T19:26:42.798Z,13.17
2023-04-01T19:29:26.177Z,13.15
2023-04-01T19:32:06.560Z,13.13
2023-04-01T19:34:43.110Z,13.12
2023-04-01T19:37:21.240Z,13.11
2023-04-01T19:39:56.614Z,13.10
2023-04-01T19:42:34.689Z,13.11
2023-04-01T19:45:18.907Z,13.10
2023-04-01T19:47:59.655Z,13.11
2023-04-01T19:50:36.631Z,13.09
2023-04-01T19:53:17.578Z,13.08
2023-04-01T19:55:50.751Z,13.09
2023-04-01T19:58:27.021Z,13.11
2023-04-01T20:01:00.356Z,13.10
2023-04-01T20:03:41.583Z,13.10
2023-04-01T20:06:19.930Z,13.10
2023-04-01T20:08:56.559Z,13.12
2023-04-01T20:11:38.116Z,13.10
2023-04-01T20:14:17.256Z,13.10
2023-04-01T20:17:20.912Z,13.11
2023-04-01T20:19:57.535Z,13.13
2023-04-01T20:22:36.491Z,13.13
2023-04-01T20:25:14.780Z,13.13
2023-04-01T20:27:47.808Z,13.12
2023-04-01T20:30:31.425Z,13.10
2023-04-01T20:33:16.554Z,13.12
2023-04-01T20:35:52.399Z,13.10
2023-04-01T20:39:02.924Z,13.10
2023-04-01T20:41:39.664Z,13.09
2023-04-01T20:44:12.845Z,13.09
2023-04-01T20:46:48.433Z,13.06
2023-04-01T20:49:32.530Z,13.07
2023-04-01T20:52:07.080Z,13.06
2023-04-01T20:54:49.971Z,13.07
2023-04-01T20:57:27.531Z,13.06
2023-04-01T21:00:20.653Z,13.08
2023-04-01T21:03:02.677Z,13.10
2023-04-01T21:06:01.807Z,13.09
2023-04-01T21:08:42.407Z,13.09
2023-04-01T21:11:19.309Z,13.10
2023-04-01T21:14:15.132Z,13.11
2023-04-01T21:16:51.824Z,13.11
2023-04-01T21:19:43.572Z,13.08
2023-04-01T21:22:32.842Z,13.10
2023-04-01T21:25:23.704Z,13.11
2023-04-01T21:28:04.995Z,13.12
2023-04-01T21:30:55.171Z,13.08
2023-04-01T21:33:39.003Z,13.12
2023-04-01T21:36:19.894Z,13.12
2023-04-01T21:39:04.236Z,13.13
2023-04-01T21:41:55.432Z,13.13
2023-04-01T21:44:37.568Z,13.10
2023-04-01T21:47:33.958Z,13.11
2023-04-01T21:50:49.415Z,13.14
2023-04-01T21:53:40.001Z,13.13
2023-04-01T21:56:44.530Z,13.13
2023-04-01T21:59:54.517Z,13.16
2023-04-01T22:02:48.922Z,13.18
2023-04-01T22:05:22.809Z,13.15
2023-04-01T22:07:57.741Z,13.16
2023-04-01T22:10:34.974Z,13.18
2023-04-01T22:13:14.572Z,13.14
2023-04-01T22:15:58.755Z,13.09
2023-04-01T22:18:35.765Z,13.05
2023-04-01T22:21:10.685Z,13.10
2023-04-01T22:23:45.657Z,13.06
2023-04-01T22:26:20.372Z,13.03
2023-04-01T22:28:57.270Z,12.84
2023-04-01T22:31:31.138Z,12.86
2023-04-01T22:34:06.616Z,12.91
2023-04-01T22:36:46.569Z,12.92
2023-04-01T22:39:29.035Z,12.92
2023-04-01T22:42:09.352Z,12.93
2023-04-01T22:44:54.134Z,12.89
2023-04-01T22:47:27.399Z,12.92
2023-04-01T22:50:04.565Z,12.89
2023-04-01T22:52:36.615Z,12.86
2023-04-01T22:55:10.346Z,12.85
2023-04-01T22:57:44.121Z,12.85
2023-04-01T23:00:19.637Z,12.68
2023-04-01T23:02:53.043Z,12.76
2023-04-01T23:05:23.348Z,12.55
2023-04-01T23:07:59.209Z,12.63
2023-04-01T23:10:29.734Z,12.60
2023-04-01T23:13:01.152Z,12.60
2023-04-01T23:15:31.391Z,12.61
2023-04-01T23:18:08.280Z,12.50
2023-04-01T23:20:48.940Z,12.65
2023-04-01T23:23:37.885Z,12.60
2023-04-01T23:26:11.426Z,12.61
2023-04-01T23:28:46.562Z,12.66
2023-04-01T23:31:31.747Z,12.65
2023-04-01T23:34:02.020Z,12.68
2023-04-01T23:36:31.643Z,12.65
2023-04-01T23:39:01.510Z,12.61
2023-04-01T23:41:32.697Z,12.62
2023-04-01T23:44:06.292Z,12.57
2023-04-01T23:46:37.524Z,12.66
2023-04-01T23:49:08.169Z,12.59
2023-04-01T23:51:40.624Z,12.54
2023-04-01T23:54:19.424Z,12.54
2023-04-01T23:56:50.710Z,12.57
2023-04-01T23:59:20.787Z,12.57
